sensor_id;sensor_type;location;lat;lon;timestamp;temperature;humidity
77985;DHT22;67177;47.240;-1.546;2023-10-31T00:00:57;12.50;82.90
77985;DHT22;67177;47.240;-1.546;2023-10-31T00:03:23;12.50;83.00
77985;DHT22;67177;47.240;-1.546;2023-10-31T00:05:48;12.50;83.00
77985;DHT22;67177;47.240;-1.546;2023-10-31T00:08:14;12.40;83.10
77985;DHT22;67177;47.240;-1.546;2023-10-31T00:10:40;12.40;83.10
77985;DHT22;67177;47.240;-1.546;2023-10-31T00:13:10;12.40;83.10
77985;DHT22;67177;47.240;-1.546;2023-10-31T00:15:35;12.40;83.20
77985;DHT22;67177;47.240;-1.546;2023-10-31T00:18:01;12.40;83.10
77985;DHT22;67177;47.240;-1.546;2023-10-31T00:20:27;12.40;83.00
77985;DHT22;67177;47.240;-1.546;2023-10-31T00:22:52;12.40;83.00
77985;DHT22;67177;47.240;-1.546;2023-10-31T00:25:18;12.50;83.10
77985;DHT22;67177;47.240;-1.546;2023-10-31T00:27:44;12.50;83.10
77985;DHT22;67177;47.240;-1.546;2023-10-31T00:30:10;12.50;83.20
77985;DHT22;67177;47.240;-1.546;2023-10-31T00:32:35;12.50;83.10
77985;DHT22;67177;47.240;-1.546;2023-10-31T00:35:01;12.50;83.10
77985;DHT22;67177;47.240;-1.546;2023-10-31T00:37:27;12.50;83.20
77985;DHT22;67177;47.240;-1.546;2023-10-31T00:39:52;12.50;83.20
77985;DHT22;67177;47.240;-1.546;2023-10-31T00:42:18;12.50;83.20
77985;DHT22;67177;47.240;-1.546;2023-10-31T00:44:44;12.50;83.40
77985;DHT22;67177;47.240;-1.546;2023-10-31T00:47:09;12.40;83.50
77985;DHT22;67177;47.240;-1.546;2023-10-31T00:49:35;12.40;83.60
77985;DHT22;67177;47.240;-1.546;2023-10-31T00:52:01;12.40;83.70
77985;DHT22;67177;47.240;-1.546;2023-10-31T00:54:26;12.40;83.70
77985;DHT22;67177;47.240;-1.546;2023-10-31T00:56:52;12.40;83.60
77985;DHT22;67177;47.240;-1.546;2023-10-31T00:59:18;12.50;83.60
77985;DHT22;67177;47.240;-1.546;2023-10-31T01:01:43;12.50;83.60
77985;DHT22;67177;47.240;-1.546;2023-10-31T01:04:10;12.50;83.50
77985;DHT22;67177;47.240;-1.546;2023-10-31T01:06:42;12.40;83.50
77985;DHT22;67177;47.240;-1.546;2023-10-31T01:09:11;12.40;83.60
77985;DHT22;67177;47.240;-1.546;2023-10-31T01:11:38;12.40;83.70
77985;DHT22;67177;47.240;-1.546;2023-10-31T01:14:04;12.40;83.80
77985;DHT22;67177;47.240;-1.546;2023-10-31T01:16:30;12.40;83.80
77985;DHT22;67177;47.240;-1.546;2023-10-31T01:18:55;12.40;83.70
77985;DHT22;67177;47.240;-1.546;2023-10-31T01:21:21;12.40;83.80
77985;DHT22;67177;47.240;-1.546;2023-10-31T01:23:47;12.40;83.80
77985;DHT22;67177;47.240;-1.546;2023-10-31T01:26:13;12.30;83.80
77985;DHT22;67177;47.240;-1.546;2023-10-31T01:28:39;12.30;83.80
77985;DHT22;67177;47.240;-1.546;2023-10-31T01:31:04;12.30;83.90
77985;DHT22;67177;47.240;-1.546;2023-10-31T01:33:31;12.30;84.00
77985;DHT22;67177;47.240;-1.546;2023-10-31T01:35:57;12.30;84.00
77985;DHT22;67177;47.240;-1.546;2023-10-31T01:38:23;12.30;84.00
77985;DHT22;67177;47.240;-1.546;2023-10-31T01:40:49;12.20;84.00
77985;DHT22;67177;47.240;-1.546;2023-10-31T01:43:35;12.20;84.00
77985;DHT22;67177;47.240;-1.546;2023-10-31T01:46:01;12.20;84.00
77985;DHT22;67177;47.240;-1.546;2023-10-31T01:48:29;12.20;84.00
77985;DHT22;67177;47.240;-1.546;2023-10-31T01:50:57;12.30;84.00
77985;DHT22;67177;47.240;-1.546;2023-10-31T01:53:24;12.30;84.00
77985;DHT22;67177;47.240;-1.546;2023-10-31T01:55:51;12.30;84.00
77985;DHT22;67177;47.240;-1.546;2023-10-31T01:58:18;12.30;83.90
77985;DHT22;67177;47.240;-1.546;2023-10-31T02:00:45;12.30;83.90
77985;DHT22;67177;47.240;-1.546;2023-10-31T02:03:11;12.30;83.90
77985;DHT22;67177;47.240;-1.546;2023-10-31T02:05:38;12.30;83.90
77985;DHT22;67177;47.240;-1.546;2023-10-31T02:08:05;12.30;83.90
77985;DHT22;67177;47.240;-1.546;2023-10-31T02:10:33;12.30;83.90
77985;DHT22;67177;47.240;-1.546;2023-10-31T02:13:13;12.30;84.00
77985;DHT22;67177;47.240;-1.546;2023-10-31T02:15:39;12.30;83.80
77985;DHT22;67177;47.240;-1.546;2023-10-31T02:18:04;12.40;83.80
77985;DHT22;67177;47.240;-1.546;2023-10-31T02:20:30;12.40;83.80
77985;DHT22;67177;47.240;-1.546;2023-10-31T02:22:56;12.40;84.00
77985;DHT22;67177;47.240;-1.546;2023-10-31T02:25:21;12.40;84.00
77985;DHT22;67177;47.240;-1.546;2023-10-31T02:27:47;12.40;84.10
77985;DHT22;67177;47.240;-1.546;2023-10-31T02:30:13;12.40;84.10
77985;DHT22;67177;47.240;-1.546;2023-10-31T02:32:40;12.40;84.00
77985;DHT22;67177;47.240;-1.546;2023-10-31T02:35:07;12.30;83.90
77985;DHT22;67177;47.240;-1.546;2023-10-31T02:37:33;12.30;83.90
77985;DHT22;67177;47.240;-1.546;2023-10-31T02:39:59;12.20;83.90
77985;DHT22;67177;47.240;-1.546;2023-10-31T02:42:26;12.20;83.80
77985;DHT22;67177;47.240;-1.546;2023-10-31T02:44:52;12.20;83.90
77985;DHT22;67177;47.240;-1.546;2023-10-31T02:47:18;12.10;83.90
77985;DHT22;67177;47.240;-1.546;2023-10-31T02:49:43;12.10;83.90
77985;DHT22;67177;47.240;-1.546;2023-10-31T02:52:09;12.10;83.90
77985;DHT22;67177;47.240;-1.546;2023-10-31T02:54:35;12.10;83.90
77985;DHT22;67177;47.240;-1.546;2023-10-31T02:57:01;12.00;83.90
77985;DHT22;67177;47.240;-1.546;2023-10-31T02:59:27;12.00;83.90
77985;DHT22;67177;47.240;-1.546;2023-10-31T03:01:53;12.00;84.00
77985;DHT22;67177;47.240;-1.546;2023-10-31T03:04:19;12.00;84.00
77985;DHT22;67177;47.240;-1.546;2023-10-31T03:06:45;12.00;83.80
77985;DHT22;67177;47.240;-1.546;2023-10-31T03:09:10;12.00;83.80
77985;DHT22;67177;47.240;-1.546;2023-10-31T03:11:36;12.00;83.70
77985;DHT22;67177;47.240;-1.546;2023-10-31T03:14:02;12.00;83.80
77985;DHT22;67177;47.240;-1.546;2023-10-31T03:16:27;12.00;83.80
77985;DHT22;67177;47.240;-1.546;2023-10-31T03:18:53;12.00;83.80
77985;DHT22;67177;47.240;-1.546;2023-10-31T03:21:19;12.00;83.80
77985;DHT22;67177;47.240;-1.546;2023-10-31T03:23:48;11.90;83.70
77985;DHT22;67177;47.240;-1.546;2023-10-31T03:26:18;11.90;83.80
77985;DHT22;67177;47.240;-1.546;2023-10-31T03:28:45;11.90;83.90
77985;DHT22;67177;47.240;-1.546;2023-10-31T03:31:11;11.90;83.90
77985;DHT22;67177;47.240;-1.546;2023-10-31T03:33:37;11.80;84.10
77985;DHT22;67177;47.240;-1.546;2023-10-31T03:36:03;11.80;84.20
77985;DHT22;67177;47.240;-1.546;2023-10-31T03:38:33;11.80;84.20
77985;DHT22;67177;47.240;-1.546;2023-10-31T03:40:59;11.80;84.30
77985;DHT22;67177;47.240;-1.546;2023-10-31T03:43:24;11.70;84.40
77985;DHT22;67177;47.240;-1.546;2023-10-31T03:45:51;11.70;84.20
77985;DHT22;67177;47.240;-1.546;2023-10-31T03:48:16;11.70;84.30
77985;DHT22;67177;47.240;-1.546;2023-10-31T03:50:42;11.70;84.30
77985;DHT22;67177;47.240;-1.546;2023-10-31T03:53:08;11.70;84.40
77985;DHT22;67177;47.240;-1.546;2023-10-31T03:55:34;11.70;84.30
77985;DHT22;67177;47.240;-1.546;2023-10-31T03:58:00;11.70;84.30
77985;DHT22;67177;47.240;-1.546;2023-10-31T04:00:25;11.70;84.40
77985;DHT22;67177;47.240;-1.546;2023-10-31T04:02:51;11.60;84.40
77985;DHT22;67177;47.240;-1.546;2023-10-31T04:05:17;11.70;84.40
77985;DHT22;67177;47.240;-1.546;2023-10-31T04:07:44;11.60;84.30
77985;DHT22;67177;47.240;-1.546;2023-10-31T04:10:10;11.60;84.40
77985;DHT22;67177;47.240;-1.546;2023-10-31T04:12:36;11.60;84.50
77985;DHT22;67177;47.240;-1.546;2023-10-31T04:15:02;11.60;84.50
77985;DHT22;67177;47.240;-1.546;2023-10-31T04:17:28;11.60;84.50
77985;DHT22;67177;47.240;-1.546;2023-10-31T04:19:54;11.60;84.50
77985;DHT22;67177;47.240;-1.546;2023-10-31T04:22:19;11.60;84.50
77985;DHT22;67177;47.240;-1.546;2023-10-31T04:24:45;11.60;84.70
77985;DHT22;67177;47.240;-1.546;2023-10-31T04:27:11;11.60;84.80
77985;DHT22;67177;47.240;-1.546;2023-10-31T04:29:36;11.50;84.70
77985;DHT22;67177;47.240;-1.546;2023-10-31T04:32:02;11.60;84.90
77985;DHT22;67177;47.240;-1.546;2023-10-31T04:34:28;11.60;85.00
77985;DHT22;67177;47.240;-1.546;2023-10-31T04:36:54;11.70;85.00
77985;DHT22;67177;47.240;-1.546;2023-10-31T04:39:20;11.70;84.80
77985;DHT22;67177;47.240;-1.546;2023-10-31T04:41:45;11.70;84.70
77985;DHT22;67177;47.240;-1.546;2023-10-31T04:44:11;11.70;84.70
77985;DHT22;67177;47.240;-1.546;2023-10-31T04:46:37;11.70;84.70
77985;DHT22;67177;47.240;-1.546;2023-10-31T04:49:02;11.60;84.80
77985;DHT22;67177;47.240;-1.546;2023-10-31T04:51:36;11.60;84.70
77985;DHT22;67177;47.240;-1.546;2023-10-31T04:54:02;11.60;84.80
77985;DHT22;67177;47.240;-1.546;2023-10-31T04:56:28;11.50;84.90
77985;DHT22;67177;47.240;-1.546;2023-10-31T04:58:53;11.50;84.80
77985;DHT22;67177;47.240;-1.546;2023-10-31T05:01:19;11.50;84.90
77985;DHT22;67177;47.240;-1.546;2023-10-31T05:03:45;11.50;84.80
77985;DHT22;67177;47.240;-1.546;2023-10-31T05:06:10;11.40;84.80
77985;DHT22;67177;47.240;-1.546;2023-10-31T05:08:36;11.40;84.90
77985;DHT22;67177;47.240;-1.546;2023-10-31T05:11:02;11.40;84.90
77985;DHT22;67177;47.240;-1.546;2023-10-31T05:13:28;11.40;84.90
77985;DHT22;67177;47.240;-1.546;2023-10-31T05:15:53;11.40;84.90
77985;DHT22;67177;47.240;-1.546;2023-10-31T05:18:19;11.40;84.80
77985;DHT22;67177;47.240;-1.546;2023-10-31T05:20:45;11.40;84.70
77985;DHT22;67177;47.240;-1.546;2023-10-31T05:23:11;11.40;84.80
77985;DHT22;67177;47.240;-1.546;2023-10-31T05:25:37;11.30;84.70
77985;DHT22;67177;47.240;-1.546;2023-10-31T05:28:03;11.30;84.70
77985;DHT22;67177;47.240;-1.546;2023-10-31T05:30:29;11.30;84.80
77985;DHT22;67177;47.240;-1.546;2023-10-31T05:32:55;11.30;84.90
77985;DHT22;67177;47.240;-1.546;2023-10-31T05:35:21;11.30;84.90
77985;DHT22;67177;47.240;-1.546;2023-10-31T05:37:46;11.30;84.90
77985;DHT22;67177;47.240;-1.546;2023-10-31T05:40:15;11.30;84.90
77985;DHT22;67177;47.240;-1.546;2023-10-31T05:42:41;11.40;84.90
77985;DHT22;67177;47.240;-1.546;2023-10-31T05:45:07;11.40;84.90
77985;DHT22;67177;47.240;-1.546;2023-10-31T05:47:33;11.40;85.00
77985;DHT22;67177;47.240;-1.546;2023-10-31T05:49:59;11.40;84.90
77985;DHT22;67177;47.240;-1.546;2023-10-31T05:52:28;11.40;85.00
77985;DHT22;67177;47.240;-1.546;2023-10-31T05:54:54;11.30;85.00
77985;DHT22;67177;47.240;-1.546;2023-10-31T05:57:20;11.30;85.00
77985;DHT22;67177;47.240;-1.546;2023-10-31T05:59:46;11.30;85.00
77985;DHT22;67177;47.240;-1.546;2023-10-31T06:02:12;11.30;84.90
77985;DHT22;67177;47.240;-1.546;2023-10-31T06:04:38;11.30;85.00
77985;DHT22;67177;47.240;-1.546;2023-10-31T06:07:04;11.20;85.00
77985;DHT22;67177;47.240;-1.546;2023-10-31T06:09:29;11.20;84.90
77985;DHT22;67177;47.240;-1.546;2023-10-31T06:11:55;11.20;84.90
77985;DHT22;67177;47.240;-1.546;2023-10-31T06:14:21;11.20;85.00
77985;DHT22;67177;47.240;-1.546;2023-10-31T06:16:47;11.30;85.10
77985;DHT22;67177;47.240;-1.546;2023-10-31T06:19:12;11.20;85.00
77985;DHT22;67177;47.240;-1.546;2023-10-31T06:21:38;11.30;85.10
77985;DHT22;67177;47.240;-1.546;2023-10-31T06:24:04;11.30;85.10
77985;DHT22;67177;47.240;-1.546;2023-10-31T06:26:29;11.30;85.10
77985;DHT22;67177;47.240;-1.546;2023-10-31T06:28:56;11.30;85.10
77985;DHT22;67177;47.240;-1.546;2023-10-31T06:31:22;11.30;85.20
77985;DHT22;67177;47.240;-1.546;2023-10-31T06:33:47;11.40;85.20
77985;DHT22;67177;47.240;-1.546;2023-10-31T06:36:13;11.40;85.20
77985;DHT22;67177;47.240;-1.546;2023-10-31T06:38:38;11.50;85.30
77985;DHT22;67177;47.240;-1.546;2023-10-31T06:41:04;11.50;85.30
77985;DHT22;67177;47.240;-1.546;2023-10-31T06:43:30;11.50;85.20
77985;DHT22;67177;47.240;-1.546;2023-10-31T06:45:55;11.50;85.20
77985;DHT22;67177;47.240;-1.546;2023-10-31T06:48:22;11.50;85.20
77985;DHT22;67177;47.240;-1.546;2023-10-31T06:50:48;11.50;85.20
77985;DHT22;67177;47.240;-1.546;2023-10-31T06:53:14;11.40;85.20
77985;DHT22;67177;47.240;-1.546;2023-10-31T06:55:39;11.40;85.30
77985;DHT22;67177;47.240;-1.546;2023-10-31T06:58:05;11.40;85.30
77985;DHT22;67177;47.240;-1.546;2023-10-31T07:00:30;11.40;85.20
77985;DHT22;67177;47.240;-1.546;2023-10-31T07:02:56;11.50;85.20
77985;DHT22;67177;47.240;-1.546;2023-10-31T07:05:24;11.60;85.30
77985;DHT22;67177;47.240;-1.546;2023-10-31T07:07:50;11.60;85.30
77985;DHT22;67177;47.240;-1.546;2023-10-31T07:10:15;11.60;85.30
77985;DHT22;67177;47.240;-1.546;2023-10-31T07:12:41;11.70;85.30
77985;DHT22;67177;47.240;-1.546;2023-10-31T07:15:07;11.70;85.20
77985;DHT22;67177;47.240;-1.546;2023-10-31T07:17:33;11.70;85.20
77985;DHT22;67177;47.240;-1.546;2023-10-31T07:19:59;11.70;85.20
77985;DHT22;67177;47.240;-1.546;2023-10-31T07:22:24;11.70;85.20
77985;DHT22;67177;47.240;-1.546;2023-10-31T07:24:51;11.70;85.20
77985;DHT22;67177;47.240;-1.546;2023-10-31T07:27:17;11.70;85.20
77985;DHT22;67177;47.240;-1.546;2023-10-31T07:29:43;11.70;85.30
77985;DHT22;67177;47.240;-1.546;2023-10-31T07:32:09;11.80;85.20
77985;DHT22;67177;47.240;-1.546;2023-10-31T07:34:35;11.80;85.20
77985;DHT22;67177;47.240;-1.546;2023-10-31T07:37:00;11.80;85.20
77985;DHT22;67177;47.240;-1.546;2023-10-31T07:39:26;11.80;85.20
77985;DHT22;67177;47.240;-1.546;2023-10-31T07:41:52;11.90;85.20
77985;DHT22;67177;47.240;-1.546;2023-10-31T07:44:18;11.90;85.20
77985;DHT22;67177;47.240;-1.546;2023-10-31T07:46:43;11.90;85.20
77985;DHT22;67177;47.240;-1.546;2023-10-31T07:49:09;11.90;85.20
77985;DHT22;67177;47.240;-1.546;2023-10-31T07:51:35;12.00;85.20
77985;DHT22;67177;47.240;-1.546;2023-10-31T07:54:01;12.00;85.10
77985;DHT22;67177;47.240;-1.546;2023-10-31T07:56:26;12.20;85.20
77985;DHT22;67177;47.240;-1.546;2023-10-31T07:58:52;12.30;85.20
77985;DHT22;67177;47.240;-1.546;2023-10-31T08:01:18;12.40;85.20
77985;DHT22;67177;47.240;-1.546;2023-10-31T08:03:45;12.40;85.20
77985;DHT22;67177;47.240;-1.546;2023-10-31T08:06:12;12.40;85.20
77985;DHT22;67177;47.240;-1.546;2023-10-31T08:08:37;12.40;85.10
77985;DHT22;67177;47.240;-1.546;2023-10-31T08:11:03;12.40;85.10
77985;DHT22;67177;47.240;-1.546;2023-10-31T08:13:30;12.60;85.00
77985;DHT22;67177;47.240;-1.546;2023-10-31T08:15:55;12.60;85.00
77985;DHT22;67177;47.240;-1.546;2023-10-31T08:18:22;12.60;85.00
77985;DHT22;67177;47.240;-1.546;2023-10-31T08:20:49;12.60;85.00
77985;DHT22;67177;47.240;-1.546;2023-10-31T08:23:16;12.60;85.00
77985;DHT22;67177;47.240;-1.546;2023-10-31T08:25:43;12.60;85.00
77985;DHT22;67177;47.240;-1.546;2023-10-31T08:28:09;12.60;85.10
77985;DHT22;67177;47.240;-1.546;2023-10-31T08:30:34;12.60;85.00
77985;DHT22;67177;47.240;-1.546;2023-10-31T08:33:00;12.60;85.20
77985;DHT22;67177;47.240;-1.546;2023-10-31T08:35:26;12.70;85.10
77985;DHT22;67177;47.240;-1.546;2023-10-31T08:37:52;12.70;85.00
77985;DHT22;67177;47.240;-1.546;2023-10-31T08:40:17;12.70;85.10
77985;DHT22;67177;47.240;-1.546;2023-10-31T08:42:43;12.70;85.20
77985;DHT22;67177;47.240;-1.546;2023-10-31T08:45:09;12.70;85.20
77985;DHT22;67177;47.240;-1.546;2023-10-31T08:47:35;12.70;85.20
77985;DHT22;67177;47.240;-1.546;2023-10-31T08:50:00;12.80;85.30
77985;DHT22;67177;47.240;-1.546;2023-10-31T08:52:26;12.80;85.30
77985;DHT22;67177;47.240;-1.546;2023-10-31T08:54:52;12.80;85.30
77985;DHT22;67177;47.240;-1.546;2023-10-31T08:57:17;12.90;85.30
77985;DHT22;67177;47.240;-1.546;2023-10-31T08:59:43;13.00;85.40
77985;DHT22;67177;47.240;-1.546;2023-10-31T09:02:09;13.10;85.30
77985;DHT22;67177;47.240;-1.546;2023-10-31T09:04:34;13.20;85.40
77985;DHT22;67177;47.240;-1.546;2023-10-31T09:07:00;13.20;85.30
77985;DHT22;67177;47.240;-1.546;2023-10-31T09:09:26;13.20;85.30
77985;DHT22;67177;47.240;-1.546;2023-10-31T09:11:52;13.30;85.20
77985;DHT22;67177;47.240;-1.546;2023-10-31T09:14:17;13.50;85.10
77985;DHT22;67177;47.240;-1.546;2023-10-31T09:16:43;13.50;85.20
77985;DHT22;67177;47.240;-1.546;2023-10-31T09:19:09;13.50;85.30
77985;DHT22;67177;47.240;-1.546;2023-10-31T09:21:34;13.50;85.30
77985;DHT22;67177;47.240;-1.546;2023-10-31T09:24:01;13.50;85.30
77985;DHT22;67177;47.240;-1.546;2023-10-31T09:26:26;13.50;85.30
77985;DHT22;67177;47.240;-1.546;2023-10-31T09:28:52;13.50;85.40
77985;DHT22;67177;47.240;-1.546;2023-10-31T09:31:18;13.60;85.50
77985;DHT22;67177;47.240;-1.546;2023-10-31T09:33:44;13.60;85.40
77985;DHT22;67177;47.240;-1.546;2023-10-31T09:36:10;13.80;85.40
77985;DHT22;67177;47.240;-1.546;2023-10-31T09:38:36;13.90;85.30
77985;DHT22;67177;47.240;-1.546;2023-10-31T09:41:02;14.00;85.30
77985;DHT22;67177;47.240;-1.546;2023-10-31T09:43:28;14.00;85.40
77985;DHT22;67177;47.240;-1.546;2023-10-31T09:45:54;14.10;85.40
77985;DHT22;67177;47.240;-1.546;2023-10-31T09:48:21;14.20;85.20
77985;DHT22;67177;47.240;-1.546;2023-10-31T09:50:47;14.30;85.20
77985;DHT22;67177;47.240;-1.546;2023-10-31T09:53:14;14.40;85.20
77985;DHT22;67177;47.240;-1.546;2023-10-31T09:55:42;14.50;85.10
77985;DHT22;67177;47.240;-1.546;2023-10-31T09:58:08;14.80;84.80
77985;DHT22;67177;47.240;-1.546;2023-10-31T10:00:34;14.90;84.50
77985;DHT22;67177;47.240;-1.546;2023-10-31T10:03:03;14.90;84.40
77985;DHT22;67177;47.240;-1.546;2023-10-31T10:05:31;14.90;84.50
77985;DHT22;67177;47.240;-1.546;2023-10-31T10:07:57;14.90;84.20
77985;DHT22;67177;47.240;-1.546;2023-10-31T10:10:24;14.80;84.10
77985;DHT22;67177;47.240;-1.546;2023-10-31T10:12:52;14.80;83.60
77985;DHT22;67177;47.240;-1.546;2023-10-31T10:15:18;14.80;83.70
77985;DHT22;67177;47.240;-1.546;2023-10-31T10:17:50;14.70;83.80
77985;DHT22;67177;47.240;-1.546;2023-10-31T10:20:16;14.70;83.70
77985;DHT22;67177;47.240;-1.546;2023-10-31T10:22:43;14.70;83.60
77985;DHT22;67177;47.240;-1.546;2023-10-31T10:25:13;14.80;83.40
77985;DHT22;67177;47.240;-1.546;2023-10-31T10:27:41;15.00;83.30
77985;DHT22;67177;47.240;-1.546;2023-10-31T10:30:08;15.10;83.30
77985;DHT22;67177;47.240;-1.546;2023-10-31T10:32:34;15.20;83.50
77985;DHT22;67177;47.240;-1.546;2023-10-31T10:35:00;15.50;82.60
77985;DHT22;67177;47.240;-1.546;2023-10-31T10:37:27;15.50;82.50
77985;DHT22;67177;47.240;-1.546;2023-10-31T10:39:53;15.40;82.00
77985;DHT22;67177;47.240;-1.546;2023-10-31T10:42:47;15.30;82.20
77985;DHT22;67177;47.240;-1.546;2023-10-31T10:45:15;15.20;81.90
77985;DHT22;67177;47.240;-1.546;2023-10-31T10:47:46;15.10;81.80
77985;DHT22;67177;47.240;-1.546;2023-10-31T10:50:13;15.10;82.00
77985;DHT22;67177;47.240;-1.546;2023-10-31T10:52:44;14.90;82.30
77985;DHT22;67177;47.240;-1.546;2023-10-31T10:55:14;14.80;82.50
77985;DHT22;67177;47.240;-1.546;2023-10-31T11:00:16;14.80;82.80
77985;DHT22;67177;47.240;-1.546;2023-10-31T11:02:43;15.00;82.90
77985;DHT22;67177;47.240;-1.546;2023-10-31T11:05:09;15.10;83.00
77985;DHT22;67177;47.240;-1.546;2023-10-31T11:07:37;15.20;83.00
77985;DHT22;67177;47.240;-1.546;2023-10-31T11:10:04;15.40;82.90
77985;DHT22;67177;47.240;-1.546;2023-10-31T11:12:31;15.50;83.00
77985;DHT22;67177;47.240;-1.546;2023-10-31T11:14:58;15.50;82.50
77985;DHT22;67177;47.240;-1.546;2023-10-31T11:17:27;15.50;82.50
77985;DHT22;67177;47.240;-1.546;2023-10-31T11:19:54;15.50;81.50
77985;DHT22;67177;47.240;-1.546;2023-10-31T11:22:21;15.40;81.10
77985;DHT22;67177;47.240;-1.546;2023-10-31T11:24:48;15.40;80.90
77985;DHT22;67177;47.240;-1.546;2023-10-31T11:27:14;15.40;80.50
77985;DHT22;67177;47.240;-1.546;2023-10-31T11:29:41;15.50;80.50
77985;DHT22;67177;47.240;-1.546;2023-10-31T11:32:11;15.60;80.20
77985;DHT22;67177;47.240;-1.546;2023-10-31T11:34:41;15.70;79.60
77985;DHT22;67177;47.240;-1.546;2023-10-31T11:42:40;16.20;78.50
77985;DHT22;67177;47.240;-1.546;2023-10-31T11:45:08;16.40;77.70
77985;DHT22;67177;47.240;-1.546;2023-10-31T11:47:49;16.50;76.90
77985;DHT22;67177;47.240;-1.546;2023-10-31T11:50:16;16.60;77.00
77985;DHT22;67177;47.240;-1.546;2023-10-31T11:52:43;16.70;76.10
77985;DHT22;67177;47.240;-1.546;2023-10-31T11:55:10;16.70;76.30
77985;DHT22;67177;47.240;-1.546;2023-10-31T11:57:36;16.70;76.20
77985;DHT22;67177;47.240;-1.546;2023-10-31T12:00:05;16.80;75.90
77985;DHT22;67177;47.240;-1.546;2023-10-31T12:02:32;16.70;76.00
77985;DHT22;67177;47.240;-1.546;2023-10-31T12:05:12;16.60;75.50
77985;DHT22;67177;47.240;-1.546;2023-10-31T12:07:45;16.50;75.90
77985;DHT22;67177;47.240;-1.546;2023-10-31T12:10:12;16.40;75.70
77985;DHT22;67177;47.240;-1.546;2023-10-31T12:12:38;16.20;75.40
77985;DHT22;67177;47.240;-1.546;2023-10-31T12:15:07;16.10;75.30
77985;DHT22;67177;47.240;-1.546;2023-10-31T12:17:34;16.10;75.60
77985;DHT22;67177;47.240;-1.546;2023-10-31T12:20:07;16.00;75.70
77985;DHT22;67177;47.240;-1.546;2023-10-31T12:22:33;16.10;74.70
77985;DHT22;67177;47.240;-1.546;2023-10-31T12:25:02;16.10;74.20
77985;DHT22;67177;47.240;-1.546;2023-10-31T12:27:49;16.20;73.80
77985;DHT22;67177;47.240;-1.546;2023-10-31T12:30:20;16.20;73.40
77985;DHT22;67177;47.240;-1.546;2023-10-31T12:32:56;16.20;73.60
77985;DHT22;67177;47.240;-1.546;2023-10-31T12:35:26;16.10;73.90
77985;DHT22;67177;47.240;-1.546;2023-10-31T12:37:52;16.10;74.00
77985;DHT22;67177;47.240;-1.546;2023-10-31T12:40:20;16.00;74.20
77985;DHT22;67177;47.240;-1.546;2023-10-31T12:42:47;16.10;74.20
77985;DHT22;67177;47.240;-1.546;2023-10-31T12:45:14;16.10;74.40
77985;DHT22;67177;47.240;-1.546;2023-10-31T12:47:40;16.20;74.50
77985;DHT22;67177;47.240;-1.546;2023-10-31T12:50:16;16.30;74.60
77985;DHT22;67177;47.240;-1.546;2023-10-31T12:52:50;16.30;74.30
77985;DHT22;67177;47.240;-1.546;2023-10-31T12:55:20;16.40;73.40
77985;DHT22;67177;47.240;-1.546;2023-10-31T12:57:47;16.50;73.30
77985;DHT22;67177;47.240;-1.546;2023-10-31T13:00:17;16.60;72.80
77985;DHT22;67177;47.240;-1.546;2023-10-31T13:02:50;16.50;72.60
77985;DHT22;67177;47.240;-1.546;2023-10-31T13:05:16;16.50;72.20
77985;DHT22;67177;47.240;-1.546;2023-10-31T13:07:52;16.60;72.10
77985;DHT22;67177;47.240;-1.546;2023-10-31T13:10:24;16.80;71.10
77985;DHT22;67177;47.240;-1.546;2023-10-31T13:12:51;16.90;71.20
77985;DHT22;67177;47.240;-1.546;2023-10-31T13:15:18;16.90;71.10
77985;DHT22;67177;47.240;-1.546;2023-10-31T13:17:44;16.80;71.40
77985;DHT22;67177;47.240;-1.546;2023-10-31T13:20:15;16.70;71.70
77985;DHT22;67177;47.240;-1.546;2023-10-31T13:22:42;16.60;72.00
77985;DHT22;67177;47.240;-1.546;2023-10-31T13:25:09;16.50;72.00
77985;DHT22;67177;47.240;-1.546;2023-10-31T13:27:40;16.40;72.10
77985;DHT22;67177;47.240;-1.546;2023-10-31T13:30:09;16.40;72.30
77985;DHT22;67177;47.240;-1.546;2023-10-31T13:32:36;16.30;72.40
77985;DHT22;67177;47.240;-1.546;2023-10-31T13:35:02;16.20;72.60
77985;DHT22;67177;47.240;-1.546;2023-10-31T13:37:28;16.20;72.70
77985;DHT22;67177;47.240;-1.546;2023-10-31T13:39:54;16.20;72.90
77985;DHT22;67177;47.240;-1.546;2023-10-31T13:42:20;16.20;72.80
77985;DHT22;67177;47.240;-1.546;2023-10-31T13:44:46;16.20;72.80
77985;DHT22;67177;47.240;-1.546;2023-10-31T13:47:13;16.30;72.60
77985;DHT22;67177;47.240;-1.546;2023-10-31T13:49:39;16.30;72.70
77985;DHT22;67177;47.240;-1.546;2023-10-31T13:52:05;16.40;72.50
77985;DHT22;67177;47.240;-1.546;2023-10-31T13:54:32;16.50;72.60
77985;DHT22;67177;47.240;-1.546;2023-10-31T13:56:58;16.50;72.40
77985;DHT22;67177;47.240;-1.546;2023-10-31T13:59:24;16.60;71.80
77985;DHT22;67177;47.240;-1.546;2023-10-31T14:01:50;16.60;72.00
77985;DHT22;67177;47.240;-1.546;2023-10-31T14:04:15;16.60;72.30
77985;DHT22;67177;47.240;-1.546;2023-10-31T14:06:45;16.60;72.30
77985;DHT22;67177;47.240;-1.546;2023-10-31T14:09:12;16.60;71.80
77985;DHT22;67177;47.240;-1.546;2023-10-31T14:11:38;16.70;71.60
77985;DHT22;67177;47.240;-1.546;2023-10-31T14:14:04;16.70;71.60
77985;DHT22;67177;47.240;-1.546;2023-10-31T14:16:39;16.70;71.40
77985;DHT22;67177;47.240;-1.546;2023-10-31T14:19:05;16.70;71.00
77985;DHT22;67177;47.240;-1.546;2023-10-31T14:21:33;16.70;71.10
77985;DHT22;67177;47.240;-1.546;2023-10-31T14:23:59;16.70;71.10
77985;DHT22;67177;47.240;-1.546;2023-10-31T14:26:26;16.60;71.10
77985;DHT22;67177;47.240;-1.546;2023-10-31T14:28:52;16.60;71.10
77985;DHT22;67177;47.240;-1.546;2023-10-31T14:31:17;16.70;70.40
77985;DHT22;67177;47.240;-1.546;2023-10-31T14:33:43;16.80;70.20
77985;DHT22;67177;47.240;-1.546;2023-10-31T14:36:10;16.80;69.90
77985;DHT22;67177;47.240;-1.546;2023-10-31T14:38:38;16.80;69.90
77985;DHT22;67177;47.240;-1.546;2023-10-31T14:41:04;16.70;70.00
77985;DHT22;67177;47.240;-1.546;2023-10-31T14:43:30;16.60;70.30
77985;DHT22;67177;47.240;-1.546;2023-10-31T14:45:56;16.50;70.60
77985;DHT22;67177;47.240;-1.546;2023-10-31T14:48:22;16.60;70.80
77985;DHT22;67177;47.240;-1.546;2023-10-31T14:50:48;16.80;71.00
77985;DHT22;67177;47.240;-1.546;2023-10-31T14:53:17;16.80;71.00
77985;DHT22;67177;47.240;-1.546;2023-10-31T14:55:46;16.80;71.10
77985;DHT22;67177;47.240;-1.546;2023-10-31T14:58:13;16.80;71.00
77985;DHT22;67177;47.240;-1.546;2023-10-31T15:00:40;16.60;71.30
77985;DHT22;67177;47.240;-1.546;2023-10-31T15:03:06;16.50;71.30
77985;DHT22;67177;47.240;-1.546;2023-10-31T15:05:32;16.40;71.50
77985;DHT22;67177;47.240;-1.546;2023-10-31T15:07:58;16.30;71.70
77985;DHT22;67177;47.240;-1.546;2023-10-31T15:10:24;16.20;71.80
77985;DHT22;67177;47.240;-1.546;2023-10-31T15:12:51;16.20;71.90
77985;DHT22;67177;47.240;-1.546;2023-10-31T15:15:17;16.10;72.00
77985;DHT22;67177;47.240;-1.546;2023-10-31T15:17:44;16.10;72.20
77985;DHT22;67177;47.240;-1.546;2023-10-31T15:20:10;16.00;72.40